sensor_id;sensor_type;location;lat;lon;timestamp;temperature;humidity
23803;DHT22;12082;51.786;6.018;2023-12-07T00:00:11;0.70;99.90
23803;DHT22;12082;51.786;6.018;2023-12-07T00:02:37;0.70;99.90
23803;DHT22;12082;51.786;6.018;2023-12-07T00:05:03;0.80;99.90
23803;DHT22;12082;51.786;6.018;2023-12-07T00:07:29;0.80;99.90
23803;DHT22;12082;51.786;6.018;2023-12-07T00:09:54;1.00;99.90
23803;DHT22;12082;51.786;6.018;2023-12-07T00:12:20;1.10;99.90
23803;DHT22;12082;51.786;6.018;2023-12-07T00:14:45;1.10;99.90
23803;DHT22;12082;51.786;6.018;2023-12-07T00:17:11;1.10;99.90
23803;DHT22;12082;51.786;6.018;2023-12-07T00:19:37;1.00;99.90
23803;DHT22;12082;51.786;6.018;2023-12-07T00:22:03;0.80;99.90
23803;DHT22;12082;51.786;6.018;2023-12-07T00:24:28;0.70;99.90
23803;DHT22;12082;51.786;6.018;2023-12-07T00:26:54;0.60;99.90
23803;DHT22;12082;51.786;6.018;2023-12-07T00:29:19;0.40;99.90
23803;DHT22;12082;51.786;6.018;2023-12-07T00:31:45;0.30;99.90
23803;DHT22;12082;51.786;6.018;2023-12-07T00:34:10;0.10;99.90
23803;DHT22;12082;51.786;6.018;2023-12-07T00:36:36;0.00;99.90
23803;DHT22;12082;51.786;6.018;2023-12-07T00:39:02;-0.30;99.90
23803;DHT22;12082;51.786;6.018;2023-12-07T00:41:29;-0.40;99.90
23803;DHT22;12082;51.786;6.018;2023-12-07T00:43:55;-0.50;99.90
23803;DHT22;12082;51.786;6.018;2023-12-07T00:46:26;-0.70;99.90
23803;DHT22;12082;51.786;6.018;2023-12-07T00:48:52;-0.70;99.90
23803;DHT22;12082;51.786;6.018;2023-12-07T00:51:17;-0.70;99.90
23803;DHT22;12082;51.786;6.018;2023-12-07T00:53:43;-0.60;99.90
23803;DHT22;12082;51.786;6.018;2023-12-07T00:56:09;-0.50;99.90
23803;DHT22;12082;51.786;6.018;2023-12-07T00:58:34;-0.60;99.90
23803;DHT22;12082;51.786;6.018;2023-12-07T01:01:01;-0.70;99.90
23803;DHT22;12082;51.786;6.018;2023-12-07T01:03:26;-0.20;99.90
23803;DHT22;12082;51.786;6.018;2023-12-07T01:05:52;-0.80;99.90
23803;DHT22;12082;51.786;6.018;2023-12-07T01:08:17;-0.80;99.90
23803;DHT22;12082;51.786;6.018;2023-12-07T01:10:43;-0.80;99.90
23803;DHT22;12082;51.786;6.018;2023-12-07T01:13:08;-0.80;99.90
23803;DHT22;12082;51.786;6.018;2023-12-07T01:15:34;-0.90;99.90
23803;DHT22;12082;51.786;6.018;2023-12-07T01:17:59;-0.90;99.90
23803;DHT22;12082;51.786;6.018;2023-12-07T01:20:25;-0.90;99.90
23803;DHT22;12082;51.786;6.018;2023-12-07T01:22:51;-0.90;99.90
23803;DHT22;12082;51.786;6.018;2023-12-07T01:25:16;-0.90;99.90
23803;DHT22;12082;51.786;6.018;2023-12-07T01:27:47;-0.90;99.90
23803;DHT22;12082;51.786;6.018;2023-12-07T01:30:12;-0.80;99.90
23803;DHT22;12082;51.786;6.018;2023-12-07T01:32:38;-0.80;99.90
23803;DHT22;12082;51.786;6.018;2023-12-07T01:35:04;-0.70;99.90
23803;DHT22;12082;51.786;6.018;2023-12-07T01:37:29;-0.60;99.90
23803;DHT22;12082;51.786;6.018;2023-12-07T01:39:56;-0.50;99.90
23803;DHT22;12082;51.786;6.018;2023-12-07T01:42:21;-0.50;99.90
23803;DHT22;12082;51.786;6.018;2023-12-07T01:44:47;-0.50;99.90
23803;DHT22;12082;51.786;6.018;2023-12-07T01:47:12;-0.50;99.90
23803;DHT22;12082;51.786;6.018;2023-12-07T01:49:39;-0.50;99.90
23803;DHT22;12082;51.786;6.018;2023-12-07T01:52:06;-0.50;99.90
23803;DHT22;12082;51.786;6.018;2023-12-07T01:54:32;-0.60;99.90
23803;DHT22;12082;51.786;6.018;2023-12-07T01:56:58;-0.60;99.90
23803;DHT22;12082;51.786;6.018;2023-12-07T01:59:24;-0.70;99.90
23803;DHT22;12082;51.786;6.018;2023-12-07T02:01:50;-0.80;99.90
23803;DHT22;12082;51.786;6.018;2023-12-07T02:04:17;-0.90;99.90
23803;DHT22;12082;51.786;6.018;2023-12-07T02:06:42;-1.00;99.90
23803;DHT22;12082;51.786;6.018;2023-12-07T02:09:08;-1.00;99.90
23803;DHT22;12082;51.786;6.018;2023-12-07T02:11:34;-1.00;99.90
23803;DHT22;12082;51.786;6.018;2023-12-07T02:14:00;-1.10;99.90
23803;DHT22;12082;51.786;6.018;2023-12-07T02:17:09;-1.10;99.90
23803;DHT22;12082;51.786;6.018;2023-12-07T02:22:14;-0.80;99.90
23803;DHT22;12082;51.786;6.018;2023-12-07T02:24:48;-0.70;99.90
23803;DHT22;12082;51.786;6.018;2023-12-07T02:27:16;-0.60;99.90
23803;DHT22;12082;51.786;6.018;2023-12-07T02:29:42;-0.50;99.90
23803;DHT22;12082;51.786;6.018;2023-12-07T02:32:08;-0.40;99.90
23803;DHT22;12082;51.786;6.018;2023-12-07T02:34:34;-0.40;99.90
23803;DHT22;12082;51.786;6.018;2023-12-07T02:37:01;-0.40;99.90
23803;DHT22;12082;51.786;6.018;2023-12-07T02:39:27;-0.30;99.90
23803;DHT22;12082;51.786;6.018;2023-12-07T02:41:53;-0.30;99.90
23803;DHT22;12082;51.786;6.018;2023-12-07T02:44:19;-0.30;99.90
23803;DHT22;12082;51.786;6.018;2023-12-07T02:46:45;-0.30;99.90
23803;DHT22;12082;51.786;6.018;2023-12-07T02:49:10;-0.40;99.90
23803;DHT22;12082;51.786;6.018;2023-12-07T02:51:36;-0.40;99.90
23803;DHT22;12082;51.786;6.018;2023-12-07T02:54:01;-0.40;99.90
23803;DHT22;12082;51.786;6.018;2023-12-07T02:56:27;-0.40;99.90
23803;DHT22;12082;51.786;6.018;2023-12-07T02:58:52;-0.40;99.90
23803;DHT22;12082;51.786;6.018;2023-12-07T03:01:18;-0.30;99.90
23803;DHT22;12082;51.786;6.018;2023-12-07T03:03:43;-0.30;99.90
23803;DHT22;12082;51.786;6.018;2023-12-07T03:06:09;-0.40;99.90
23803;DHT22;12082;51.786;6.018;2023-12-07T03:08:34;-0.30;99.90
23803;DHT22;12082;51.786;6.018;2023-12-07T03:11:00;-0.20;99.90
23803;DHT22;12082;51.786;6.018;2023-12-07T03:13:26;0.00;99.90
23803;DHT22;12082;51.786;6.018;2023-12-07T03:15:51;0.20;99.90
23803;DHT22;12082;51.786;6.018;2023-12-07T03:18:17;0.30;99.90
23803;DHT22;12082;51.786;6.018;2023-12-07T03:20:42;0.30;99.90
23803;DHT22;12082;51.786;6.018;2023-12-07T03:23:08;0.20;99.90
23803;DHT22;12082;51.786;6.018;2023-12-07T03:25:33;0.30;99.90
23803;DHT22;12082;51.786;6.018;2023-12-07T03:27:59;0.30;99.90
23803;DHT22;12082;51.786;6.018;2023-12-07T03:30:25;0.20;99.90
23803;DHT22;12082;51.786;6.018;2023-12-07T03:32:50;0.20;99.90
23803;DHT22;12082;51.786;6.018;2023-12-07T03:35:16;0.10;99.90
23803;DHT22;12082;51.786;6.018;2023-12-07T03:37:42;0.00;99.90
23803;DHT22;12082;51.786;6.018;2023-12-07T03:40:08;0.00;99.90
23803;DHT22;12082;51.786;6.018;2023-12-07T03:42:34;-0.10;99.90
23803;DHT22;12082;51.786;6.018;2023-12-07T03:44:59;-0.10;99.90
23803;DHT22;12082;51.786;6.018;2023-12-07T03:47:25;-0.10;99.90
23803;DHT22;12082;51.786;6.018;2023-12-07T03:49:50;-0.20;99.90
23803;DHT22;12082;51.786;6.018;2023-12-07T03:52:16;-0.20;99.90
23803;DHT22;12082;51.786;6.018;2023-12-07T03:54:41;-0.10;99.90
23803;DHT22;12082;51.786;6.018;2023-12-07T03:57:07;-0.10;99.90
23803;DHT22;12082;51.786;6.018;2023-12-07T03:59:35;-0.20;99.90
23803;DHT22;12082;51.786;6.018;2023-12-07T04:02:01;-0.20;99.90
23803;DHT22;12082;51.786;6.018;2023-12-07T04:04:27;-0.20;99.90
23803;DHT22;12082;51.786;6.018;2023-12-07T04:06:53;-0.30;99.90
23803;DHT22;12082;51.786;6.018;2023-12-07T04:09:19;-0.30;99.90
23803;DHT22;12082;51.786;6.018;2023-12-07T04:11:44;-0.30;99.90
23803;DHT22;12082;51.786;6.018;2023-12-07T04:14:11;-0.40;99.90
23803;DHT22;12082;51.786;6.018;2023-12-07T04:16:37;-0.40;99.90
23803;DHT22;12082;51.786;6.018;2023-12-07T04:19:02;-0.30;99.90
23803;DHT22;12082;51.786;6.018;2023-12-07T04:21:28;-0.20;99.90
23803;DHT22;12082;51.786;6.018;2023-12-07T04:23:53;-0.10;99.90
23803;DHT22;12082;51.786;6.018;2023-12-07T04:26:19;-0.10;99.90
23803;DHT22;12082;51.786;6.018;2023-12-07T04:28:44;-0.10;99.90
23803;DHT22;12082;51.786;6.018;2023-12-07T04:31:10;-0.10;99.90
23803;DHT22;12082;51.786;6.018;2023-12-07T04:33:35;0.00;99.90
23803;DHT22;12082;51.786;6.018;2023-12-07T04:36:01;0.10;99.90
23803;DHT22;12082;51.786;6.018;2023-12-07T04:38:27;0.10;99.90
23803;DHT22;12082;51.786;6.018;2023-12-07T04:40:52;0.20;99.90
23803;DHT22;12082;51.786;6.018;2023-12-07T04:43:18;0.20;99.90
23803;DHT22;12082;51.786;6.018;2023-12-07T04:45:44;0.20;99.90
23803;DHT22;12082;51.786;6.018;2023-12-07T04:48:09;0.20;99.90
23803;DHT22;12082;51.786;6.018;2023-12-07T04:50:35;0.20;99.90
23803;DHT22;12082;51.786;6.018;2023-12-07T04:53:00;0.20;99.90
23803;DHT22;12082;51.786;6.018;2023-12-07T04:55:26;0.20;99.90
23803;DHT22;12082;51.786;6.018;2023-12-07T04:57:51;0.20;99.90
23803;DHT22;12082;51.786;6.018;2023-12-07T05:00:17;0.20;99.90
23803;DHT22;12082;51.786;6.018;2023-12-07T05:02:43;0.20;99.90
23803;DHT22;12082;51.786;6.018;2023-12-07T05:05:09;0.20;99.90
23803;DHT22;12082;51.786;6.018;2023-12-07T05:07:34;0.20;99.90
23803;DHT22;12082;51.786;6.018;2023-12-07T05:10:00;0.20;99.90
23803;DHT22;12082;51.786;6.018;2023-12-07T05:12:25;0.20;99.90
23803;DHT22;12082;51.786;6.018;2023-12-07T05:14:51;0.10;99.90
23803;DHT22;12082;51.786;6.018;2023-12-07T05:17:17;0.10;99.90
23803;DHT22;12082;51.786;6.018;2023-12-07T05:19:44;0.10;99.90
23803;DHT22;12082;51.786;6.018;2023-12-07T05:22:10;0.00;99.90
23803;DHT22;12082;51.786;6.018;2023-12-07T05:24:36;0.00;99.90
23803;DHT22;12082;51.786;6.018;2023-12-07T05:27:02;-0.10;99.90
23803;DHT22;12082;51.786;6.018;2023-12-07T05:29:29;0.00;99.90
23803;DHT22;12082;51.786;6.018;2023-12-07T05:31:54;-0.10;99.90
23803;DHT22;12082;51.786;6.018;2023-12-07T05:34:20;-0.10;99.90
23803;DHT22;12082;51.786;6.018;2023-12-07T05:36:45;-0.10;99.90
23803;DHT22;12082;51.786;6.018;2023-12-07T05:39:12;-0.10;99.90
23803;DHT22;12082;51.786;6.018;2023-12-07T05:41:38;-0.10;99.90
23803;DHT22;12082;51.786;6.018;2023-12-07T05:44:04;-0.10;99.90
23803;DHT22;12082;51.786;6.018;2023-12-07T05:46:29;-0.10;99.90
23803;DHT22;12082;51.786;6.018;2023-12-07T05:48:55;-0.10;99.90
23803;DHT22;12082;51.786;6.018;2023-12-07T05:51:21;-0.10;99.90
23803;DHT22;12082;51.786;6.018;2023-12-07T05:53:46;-0.10;99.90
23803;DHT22;12082;51.786;6.018;2023-12-07T05:56:12;-0.10;99.90
23803;DHT22;12082;51.786;6.018;2023-12-07T05:58:38;-0.10;99.90
23803;DHT22;12082;51.786;6.018;2023-12-07T06:01:03;-0.10;99.90
23803;DHT22;12082;51.786;6.018;2023-12-07T06:03:29;-0.10;99.90
23803;DHT22;12082;51.786;6.018;2023-12-07T06:05:55;-0.10;99.90
23803;DHT22;12082;51.786;6.018;2023-12-07T06:08:21;-0.10;99.90
23803;DHT22;12082;51.786;6.018;2023-12-07T06:10:47;-0.10;99.90
23803;DHT22;12082;51.786;6.018;2023-12-07T06:13:13;-0.10;99.90
23803;DHT22;12082;51.786;6.018;2023-12-07T06:15:39;-0.10;99.90
23803;DHT22;12082;51.786;6.018;2023-12-07T06:18:04;-0.10;99.90
23803;DHT22;12082;51.786;6.018;2023-12-07T06:20:30;-0.10;99.90
23803;DHT22;12082;51.786;6.018;2023-12-07T06:22:56;-0.20;99.90
23803;DHT22;12082;51.786;6.018;2023-12-07T06:25:23;-0.10;99.90
23803;DHT22;12082;51.786;6.018;2023-12-07T06:27:48;-0.10;99.90
23803;DHT22;12082;51.786;6.018;2023-12-07T06:30:14;-0.10;99.90
23803;DHT22;12082;51.786;6.018;2023-12-07T06:32:40;-0.10;99.90
23803;DHT22;12082;51.786;6.018;2023-12-07T06:35:06;-0.10;99.90
23803;DHT22;12082;51.786;6.018;2023-12-07T06:37:32;-0.10;99.90
23803;DHT22;12082;51.786;6.018;2023-12-07T06:39:57;-0.10;99.90
23803;DHT22;12082;51.786;6.018;2023-12-07T06:42:24;-0.10;99.90
23803;DHT22;12082;51.786;6.018;2023-12-07T06:44:49;-0.10;99.90
23803;DHT22;12082;51.786;6.018;2023-12-07T06:47:15;-0.20;99.90
23803;DHT22;12082;51.786;6.018;2023-12-07T06:49:41;-0.20;99.90
23803;DHT22;12082;51.786;6.018;2023-12-07T06:52:07;-0.20;99.90
23803;DHT22;12082;51.786;6.018;2023-12-07T06:54:33;-0.20;99.90
23803;DHT22;12082;51.786;6.018;2023-12-07T06:56:59;-0.20;99.90
23803;DHT22;12082;51.786;6.018;2023-12-07T06:59:24;-0.20;99.90
23803;DHT22;12082;51.786;6.018;2023-12-07T07:01:50;-0.20;99.90
23803;DHT22;12082;51.786;6.018;2023-12-07T07:04:15;-0.20;99.90
23803;DHT22;12082;51.786;6.018;2023-12-07T07:06:42;-0.20;99.90
23803;DHT22;12082;51.786;6.018;2023-12-07T07:09:07;-0.20;99.90
23803;DHT22;12082;51.786;6.018;2023-12-07T07:11:33;-0.10;99.90
23803;DHT22;12082;51.786;6.018;2023-12-07T07:14:00;-0.10;99.90
23803;DHT22;12082;51.786;6.018;2023-12-07T07:16:25;-0.10;99.90
23803;DHT22;12082;51.786;6.018;2023-12-07T07:18:51;-0.10;99.90
23803;DHT22;12082;51.786;6.018;2023-12-07T07:21:16;-0.10;99.90
23803;DHT22;12082;51.786;6.018;2023-12-07T07:23:42;0.00;99.90
23803;DHT22;12082;51.786;6.018;2023-12-07T07:26:07;0.00;99.90
23803;DHT22;12082;51.786;6.018;2023-12-07T07:28:33;-0.10;99.90
23803;DHT22;12082;51.786;6.018;2023-12-07T07:31:00;-0.10;99.90
23803;DHT22;12082;51.786;6.018;2023-12-07T07:33:25;0.00;99.90
23803;DHT22;12082;51.786;6.018;2023-12-07T07:35:51;0.00;99.90
23803;DHT22;12082;51.786;6.018;2023-12-07T07:38:16;0.00;99.90
23803;DHT22;12082;51.786;6.018;2023-12-07T07:40:42;0.00;99.90
23803;DHT22;12082;51.786;6.018;2023-12-07T07:43:08;0.00;99.90
23803;DHT22;12082;51.786;6.018;2023-12-07T07:45:33;-0.10;99.90
23803;DHT22;12082;51.786;6.018;2023-12-07T07:48:00;0.00;99.90
23803;DHT22;12082;51.786;6.018;2023-12-07T07:50:25;0.00;99.90
23803;DHT22;12082;51.786;6.018;2023-12-07T07:52:51;0.00;99.90
23803;DHT22;12082;51.786;6.018;2023-12-07T07:55:16;0.00;99.90
23803;DHT22;12082;51.786;6.018;2023-12-07T07:57:43;0.00;99.90
23803;DHT22;12082;51.786;6.018;2023-12-07T08:00:09;0.00;99.90
23803;DHT22;12082;51.786;6.018;2023-12-07T08:02:35;0.10;99.90
23803;DHT22;12082;51.786;6.018;2023-12-07T08:05:02;0.00;99.90
23803;DHT22;12082;51.786;6.018;2023-12-07T08:07:27;0.00;99.90
23803;DHT22;12082;51.786;6.018;2023-12-07T08:09:53;0.10;99.90
23803;DHT22;12082;51.786;6.018;2023-12-07T08:12:18;0.10;99.90
23803;DHT22;12082;51.786;6.018;2023-12-07T08:14:44;0.10;99.90
23803;DHT22;12082;51.786;6.018;2023-12-07T08:17:11;0.10;99.90
23803;DHT22;12082;51.786;6.018;2023-12-07T08:19:37;0.20;99.90
23803;DHT22;12082;51.786;6.018;2023-12-07T08:22:03;0.20;99.90
23803;DHT22;12082;51.786;6.018;2023-12-07T08:24:29;0.30;99.90
23803;DHT22;12082;51.786;6.018;2023-12-07T08:26:54;0.30;99.90
23803;DHT22;12082;51.786;6.018;2023-12-07T08:29:20;0.30;99.90
23803;DHT22;12082;51.786;6.018;2023-12-07T08:31:46;0.30;99.90
23803;DHT22;12082;51.786;6.018;2023-12-07T08:34:12;0.30;99.90
23803;DHT22;12082;51.786;6.018;2023-12-07T08:36:38;0.40;99.90
23803;DHT22;12082;51.786;6.018;2023-12-07T08:39:03;0.40;99.90
23803;DHT22;12082;51.786;6.018;2023-12-07T08:41:29;0.40;99.90
23803;DHT22;12082;51.786;6.018;2023-12-07T08:43:54;0.50;99.90
23803;DHT22;12082;51.786;6.018;2023-12-07T08:46:20;0.50;99.90
23803;DHT22;12082;51.786;6.018;2023-12-07T08:48:45;0.50;99.90
23803;DHT22;12082;51.786;6.018;2023-12-07T08:51:11;0.50;99.90
23803;DHT22;12082;51.786;6.018;2023-12-07T08:53:38;0.50;99.90
23803;DHT22;12082;51.786;6.018;2023-12-07T08:56:04;0.50;99.90
23803;DHT22;12082;51.786;6.018;2023-12-07T08:58:30;0.50;99.90
23803;DHT22;12082;51.786;6.018;2023-12-07T09:00:55;0.50;99.90
23803;DHT22;12082;51.786;6.018;2023-12-07T09:03:21;0.60;99.90
23803;DHT22;12082;51.786;6.018;2023-12-07T09:05:50;0.60;99.90
23803;DHT22;12082;51.786;6.018;2023-12-07T09:08:16;0.70;99.90
23803;DHT22;12082;51.786;6.018;2023-12-07T09:10:42;0.60;99.90
23803;DHT22;12082;51.786;6.018;2023-12-07T09:13:07;0.60;99.90
23803;DHT22;12082;51.786;6.018;2023-12-07T09:15:33;0.70;99.90
23803;DHT22;12082;51.786;6.018;2023-12-07T09:18:03;0.70;99.90
23803;DHT22;12082;51.786;6.018;2023-12-07T09:20:28;0.70;99.90
23803;DHT22;12082;51.786;6.018;2023-12-07T09:22:54;0.70;99.90
23803;DHT22;12082;51.786;6.018;2023-12-07T09:25:20;0.80;99.90
23803;DHT22;12082;51.786;6.018;2023-12-07T09:27:46;0.80;99.90
23803;DHT22;12082;51.786;6.018;2023-12-07T09:30:13;0.80;99.90
23803;DHT22;12082;51.786;6.018;2023-12-07T09:32:40;0.80;99.90
23803;DHT22;12082;51.786;6.018;2023-12-07T09:35:06;0.80;99.90
23803;DHT22;12082;51.786;6.018;2023-12-07T09:37:33;0.90;99.90
23803;DHT22;12082;51.786;6.018;2023-12-07T09:39:59;0.90;99.90
23803;DHT22;12082;51.786;6.018;2023-12-07T09:42:24;1.00;99.90
23803;DHT22;12082;51.786;6.018;2023-12-07T09:44:50;1.00;99.90
23803;DHT22;12082;51.786;6.018;2023-12-07T09:47:16;1.10;99.90
23803;DHT22;12082;51.786;6.018;2023-12-07T09:49:41;1.10;99.90
23803;DHT22;12082;51.786;6.018;2023-12-07T09:52:07;1.20;99.90
23803;DHT22;12082;51.786;6.018;2023-12-07T09:54:33;1.20;99.90
23803;DHT22;12082;51.786;6.018;2023-12-07T09:57:00;1.20;99.90
23803;DHT22;12082;51.786;6.018;2023-12-07T09:59:26;1.20;99.90
23803;DHT22;12082;51.786;6.018;2023-12-07T10:01:52;1.20;99.90
23803;DHT22;12082;51.786;6.018;2023-12-07T10:04:22;1.30;99.90
23803;DHT22;12082;51.786;6.018;2023-12-07T10:06:49;1.30;99.90
23803;DHT22;12082;51.786;6.018;2023-12-07T10:09:16;1.70;99.90
23803;DHT22;12082;51.786;6.018;2023-12-07T10:11:41;1.50;99.90
23803;DHT22;12082;51.786;6.018;2023-12-07T10:14:08;1.50;99.90
23803;DHT22;12082;51.786;6.018;2023-12-07T10:16:34;1.50;99.90
23803;DHT22;12082;51.786;6.018;2023-12-07T10:19:16;1.60;99.90
23803;DHT22;12082;51.786;6.018;2023-12-07T10:21:49;1.60;99.90
23803;DHT22;12082;51.786;6.018;2023-12-07T10:24:16;1.60;99.90
23803;DHT22;12082;51.786;6.018;2023-12-07T10:26:43;1.60;99.90
23803;DHT22;12082;51.786;6.018;2023-12-07T10:29:09;1.70;99.90
23803;DHT22;12082;51.786;6.018;2023-12-07T10:31:36;1.70;99.90
23803;DHT22;12082;51.786;6.018;2023-12-07T10:34:02;1.80;99.90
23803;DHT22;12082;51.786;6.018;2023-12-07T10:36:28;1.80;99.90
23803;DHT22;12082;51.786;6.018;2023-12-07T10:38:54;1.80;99.90
23803;DHT22;12082;51.786;6.018;2023-12-07T10:41:21;1.90;99.90
23803;DHT22;12082;51.786;6.018;2023-12-07T10:44:01;1.90;99.90
23803;DHT22;12082;51.786;6.018;2023-12-07T10:46:27;2.00;99.90
23803;DHT22;12082;51.786;6.018;2023-12-07T10:49:00;2.00;99.90
23803;DHT22;12082;51.786;6.018;2023-12-07T10:51:51;2.10;99.90
23803;DHT22;12082;51.786;6.018;2023-12-07T10:54:22;2.40;99.90
23803;DHT22;12082;51.786;6.018;2023-12-07T10:56:48;2.50;99.90
23803;DHT22;12082;51.786;6.018;2023-12-07T10:59:16;2.60;99.90
23803;DHT22;12082;51.786;6.018;2023-12-07T11:01:43;2.70;99.90
23803;DHT22;12082;51.786;6.018;2023-12-07T11:04:13;2.70;99.90
23803;DHT22;12082;51.786;6.018;2023-12-07T11:06:44;2.70;99.90
23803;DHT22;12082;51.786;6.018;2023-12-07T11:09:18;2.70;99.90
23803;DHT22;12082;51.786;6.018;2023-12-07T11:11:52;2.80;99.90
23803;DHT22;12082;51.786;6.018;2023-12-07T11:14:21;2.80;99.90
23803;DHT22;12082;51.786;6.018;2023-12-07T11:16:47;2.80;99.90
23803;DHT22;12082;51.786;6.018;2023-12-07T11:19:48;2.80;99.90
23803;DHT22;12082;51.786;6.018;2023-12-07T11:22:14;2.70;99.90
23803;DHT22;12082;51.786;6.018;2023-12-07T11:24:56;2.80;99.90
23803;DHT22;12082;51.786;6.018;2023-12-07T11:27:29;2.80;99.90
23803;DHT22;12082;51.786;6.018;2023-12-07T11:29:59;2.90;99.90
23803;DHT22;12082;51.786;6.018;2023-12-07T11:32:27;3.00;99.90
23803;DHT22;12082;51.786;6.018;2023-12-07T11:34:52;3.20;99.90
23803;DHT22;12082;51.786;6.018;2023-12-07T11:37:19;3.20;99.90
23803;DHT22;12082;51.786;6.018;2023-12-07T11:39:45;3.30;99.90
23803;DHT22;12082;51.786;6.018;2023-12-07T11:42:19;3.20;99.90
23803;DHT22;12082;51.786;6.018;2023-12-07T11:44:47;3.30;99.90
23803;DHT22;12082;51.786;6.018;2023-12-07T11:47:18;3.10;99.90
23803;DHT22;12082;51.786;6.018;2023-12-07T11:49:45;3.00;99.90
23803;DHT22;12082;51.786;6.018;2023-12-07T11:52:20;2.80;99.90
23803;DHT22;12082;51.786;6.018;2023-12-07T11:54:47;2.80;99.90
23803;DHT22;12082;51.786;6.018;2023-12-07T11:57:14;2.90;99.90
23803;DHT22;12082;51.786;6.018;2023-12-07T11:59:40;2.90;99.90
23803;DHT22;12082;51.786;6.018;2023-12-07T12:02:06;2.90;99.90
23803;DHT22;12082;51.786;6.018;2023-12-07T12:04:32;2.90;99.90
23803;DHT22;12082;51.786;6.018;2023-12-07T12:06:57;2.90;99.90
23803;DHT22;12082;51.786;6.018;2023-12-07T12:09:26;2.90;99.90
23803;DHT22;12082;51.786;6.018;2023-12-07T12:11:51;2.80;99.90
23803;DHT22;12082;51.786;6.018;2023-12-07T12:14:17;2.70;99.90
23803;DHT22;12082;51.786;6.018;2023-12-07T12:16:44;2.70;99.90
23803;DHT22;12082;51.786;6.018;2023-12-07T12:19:10;2.60;99.90
23803;DHT22;12082;51.786;6.018;2023-12-07T12:21:37;2.60;99.90
23803;DHT22;12082;51.786;6.018;2023-12-07T12:24:06;2.50;99.90
23803;DHT22;12082;51.786;6.018;2023-12-07T12:26:36;2.50;99.90
23803;DHT22;12082;51.786;6.018;2023-12-07T12:29:05;2.50;99.90
23803;DHT22;12082;51.786;6.018;2023-12-07T12:31:32;2.50;99.90
23803;DHT22;12082;51.786;6.018;2023-12-07T12:33:57;2.50;99.90
23803;DHT22;12082;51.786;6.018;2023-12-07T12:36:23;2.60;99.90
23803;DHT22;12082;51.786;6.018;2023-12-07T12:38:52;2.60;99.90
23803;DHT22;12082;51.786;6.018;2023-12-07T12:41:21;2.70;99.90
23803;DHT22;12082;51.786;6.018;2023-12-07T12:43:48;2.70;99.90
23803;DHT22;12082;51.786;6.018;2023-12-07T12:46:15;2.70;99.90
23803;DHT22;12082;51.786;6.018;2023-12-07T12:48:54;2.70;99.90
23803;DHT22;12082;51.786;6.018;2023-12-07T12:51:21;2.80;99.90
23803;DHT22;12082;51.786;6.018;2023-12-07T12:53:48;2.80;99.90
23803;DHT22;12082;51.786;6.018;2023-12-07T12:56:15;2.80;99.90
23803;DHT22;12082;51.786;6.018;2023-12-07T12:58:41;2.80;99.90
23803;DHT22;12082;51.786;6.018;2023-12-07T13:01:06;2.80;99.90
23803;DHT22;12082;51.786;6.018;2023-12-07T13:03:32;2.80;99.90
23803;DHT22;12082;51.786;6.018;2023-12-07T13:05:58;2.80;99.90
23803;DHT22;12082;51.786;6.018;2023-12-07T13:08:24;2.70;99.90
23803;DHT22;12082;51.786;6.018;2023-12-07T13:10:49;2.60;99.90
23803;DHT22;12082;51.786;6.018;2023-12-07T13:13:15;2.50;99.90
23803;DHT22;12082;51.786;6.018;2023-12-07T13:15:42;2.40;99.90
23803;DHT22;12082;51.786;6.018;2023-12-07T13:18:08;2.40;99.90
23803;DHT22;12082;51.786;6.018;2023-12-07T13:20:34;2.10;99.90
23803;DHT22;12082;51.786;6.018;2023-12-07T13:23:00;2.50;99.90
23803;DHT22;12082;51.786;6.018;2023-12-07T13:25:26;2.50;99.90
23803;DHT22;12082;51.786;6.018;2023-12-07T13:27:52;2.50;99.90
23803;DHT22;12082;51.786;6.018;2023-12-07T13:30:18;2.50;99.90
23803;DHT22;12082;51.786;6.018;2023-12-07T13:32:43;2.60;99.90
23803;DHT22;12082;51.786;6.018;2023-12-07T13:35:09;2.60;99.90
23803;DHT22;12082;51.786;6.018;2023-12-07T13:37:35;2.60;99.90
23803;DHT22;12082;51.786;6.018;2023-12-07T13:40:02;2.60;99.90
23803;DHT22;12082;51.786;6.018;2023-12-07T13:42:30;2.60;99.90
23803;DHT22;12082;51.786;6.018;2023-12-07T13:44:57;2.60;99.90
23803;DHT22;12082;51.786;6.018;2023-12-07T13:47:27;2.60;99.90
23803;DHT22;12082;51.786;6.018;2023-12-07T13:49:57;2.70;99.90
23803;DHT22;12082;51.786;6.018;2023-12-07T13:52:23;2.70;99.90
23803;DHT22;12082;51.786;6.018;2023-12-07T13:54:49;2.70;99.90
23803;DHT22;12082;51.786;6.018;2023-12-07T13:57:15;2.70;99.90
23803;DHT22;12082;51.786;6.018;2023-12-07T13:59:40;2.70;99.90
23803;DHT22;12082;51.786;6.018;2023-12-07T14:02:06;2.60;99.90
23803;DHT22;12082;51.786;6.018;2023-12-07T14:04:33;2.70;99.90
23803;DHT22;12082;51.786;6.018;2023-12-07T14:07:15;2.60;99.90
23803;DHT22;12082;51.786;6.018;2023-12-07T14:09:43;2.60;99.90
23803;DHT22;12082;51.786;6.018;2023-12-07T14:12:10;2.60;99.90
23803;DHT22;12082;51.786;6.018;2023-12-07T14:14:41;2.60;99.90
23803;DHT22;12082;51.786;6.018;2023-12-07T14:17:08;2.60;99.90
23803;DHT22;12082;51.786;6.018;2023-12-07T14:19:34;2.60;99.90
23803;DHT22;12082;51.786;6.018;2023-12-07T14:22:00;2.60;99.90
23803;DHT22;12082;51.786;6.018;2023-12-07T14:24:26;2.50;99.90
23803;DHT22;12082;51.786;6.018;2023-12-07T14:26:53;2.50;99.90
23803;DHT22;12082;51.786;6.018;2023-12-07T14:29:19;2.50;99.90
23803;DHT22;12082;51.786;6.018;2023-12-07T14:31:47;2.50;99.90
23803;DHT22;12082;51.786;6.018;2023-12-07T14:34:14;2.50;99.90
23803;DHT22;12082;51.786;6.018;2023-12-07T14:36:40;2.50;99.90
23803;DHT22;12082;51.786;6.018;2023-12-07T14:39:07;2.50;99.90
23803;DHT22;12082;51.786;6.018;2023-12-07T14:41:33;2.50;99.90
23803;DHT22;12082;51.786;6.018;2023-12-07T14:43:59;2.50;99.90
23803;DHT22;12082;51.786;6.018;2023-12-07T14:46:24;2.50;99.90
23803;DHT22;12082;51.786;6.018;2023-12-07T14:48:50;2.50;99.90
23803;DHT22;12082;51.786;6.018;2023-12-07T14:51:19;2.40;99.90
23803;DHT22;12082;51.786;6.018;2023-12-07T14:53:48;2.40;99.90
23803;DHT22;12082;51.786;6.018;2023-12-07T14:56:14;2.40;99.90
23803;DHT22;12082;51.786;6.018;2023-12-07T14:58:39;2.40;99.90
23803;DHT22;12082;51.786;6.018;2023-12-07T15:01:06;2.40;99.90
23803;DHT22;12082;51.786;6.018;2023-12-07T15:03:31;2.30;99.90
23803;DHT22;12082;51.786;6.018;2023-12-07T15:05:57;2.30;99.90
23803;DHT22;12082;51.786;6.018;2023-12-07T15:08:23;2.20;99.90
23803;DHT22;12082;51.786;6.018;2023-12-07T15:10:48;2.20;99.90
23803;DHT22;12082;51.786;6.018;2023-12-07T15:13:18;2.10;99.90
23803;DHT22;12082;51.786;6.018;2023-12-07T15:15:43;2.10;99.90
23803;DHT22;12082;51.786;6.018;2023-12-07T15:18:09;2.10;99.90
23803;DHT22;12082;51.786;6.018;2023-12-07T15:20:35;2.10;99.90
23803;DHT22;12082;51.786;6.018;2023-12-07T15:23:01;2.00;99.90
23803;DHT22;12082;51.786;6.018;2023-12-07T15:25:28;2.00;99.90
23803;DHT22;12082;51.786;6.018;2023-12-07T15:27:55;1.90;99.90
23803;DHT22;12082;51.786;6.018;2023-12-07T15:30:20;1.90;99.90
23803;DHT22;12082;51.786;6.018;2023-12-07T15:32:51;1.90;99.90
23803;DHT22;12082;51.786;6.018;2023-12-07T15:35:17;1.80;99.90
23803;DHT22;12082;51.786;6.018;2023-12-07T15:37:44;1.80;99.90